Impacts TAF Board INFO
FOR SITUATIONAL AWARENESS. NOT TO BE USED FOR FLIGHT PLANNING PURPOSES.
IDs:

KDTW - Detroit Metro/Wayne, MI, US

Issued at 1757 UTC 18 Feb 2018
Updated at 1811 UTC 18 Feb 2018
Potential Impact None Slight Moderate High
Time<<19/07Z 19/08Z 19/09Z 19/10Z 19/11Z 19/12Z 19/13Z 19/14Z 19/15Z 19/16Z 19/17Z 19/18Z 19/19Z>>
Type PRVL PRVL PRVL PRVL PRVL PRVL PRVL PRVL PRVL PRVL PRVL PRVL PRVL
VIS >6 >6 >6 >6 >6 4 4 4 4 4 4 3 3
CIG -- -- 25 25 25 15 15 15 15 15 15 15 15
Cover SCT SCT OVC OVC OVC OVC OVC OVC OVC OVC OVC OVC OVC
FltCat VFR VFR MVFR MVFR MVFR MVFR MVFR MVFR MVFR MVFR MVFR MVFR MVFR
WX -- -- -- -- -- -SHRA BR -SHRA BR -SHRA BR -SHRA BR -SHRA BR -SHRA BR -SHRA BR -SHRA BR
WDir 140 140 180 180 180 200 200 200 200 200 200 VRB VRB
WSpd 5 5 3 3 3 5 5 5 5 5 5 4 4
WGst -- -- -- -- -- -- -- -- -- -- -- -- --

Raw TAF
KDTW 181757Z 1818/1924 20010KT P6SM SCT025 BKN250
  FM182200 14005KT P6SM FEW025 SCT250
  FM190900 18003KT P6SM BKN025 BKN060 OVC100
  FM191200 20005KT 4SM -SHRA BR BKN015 OVC050
  FM191800 VRB04KT 3SM -SHRA BR SCT008 OVC015


METAR Board
Radar Display
Forecast Discussion

FOR SITUATIONAL AWARENESS. NOT TO BE USED FOR FLIGHT PLANNING PURPOSES.